sensor_id;sensor_type;location;lat;lon;timestamp;temperature;humidity
39021;DHT22;25188;51.958;5.842;2022-11-20T00:01:50;-0.20;75.80
39021;DHT22;25188;51.958;5.842;2022-11-20T00:04:16;-0.30;75.90
39021;DHT22;25188;51.958;5.842;2022-11-20T00:06:41;-0.20;76.10
39021;DHT22;25188;51.958;5.842;2022-11-20T00:09:10;-0.20;76.20
39021;DHT22;25188;51.958;5.842;2022-11-20T00:11:35;-0.30;76.50
39021;DHT22;25188;51.958;5.842;2022-11-20T00:14:02;-0.30;76.50
39021;DHT22;25188;51.958;5.842;2022-11-20T00:16:30;-0.30;76.50
39021;DHT22;25188;51.958;5.842;2022-11-20T00:18:56;-0.30;76.70
39021;DHT22;25188;51.958;5.842;2022-11-20T00:21:24;-0.40;77.20
39021;DHT22;25188;51.958;5.842;2022-11-20T00:23:51;-0.40;76.80
39021;DHT22;25188;51.958;5.842;2022-11-20T00:26:19;-0.40;76.90
39021;DHT22;25188;51.958;5.842;2022-11-20T00:28:50;-0.50;76.90
39021;DHT22;25188;51.958;5.842;2022-11-20T00:31:17;-0.50;77.10
39021;DHT22;25188;51.958;5.842;2022-11-20T00:33:44;-0.50;77.20
39021;DHT22;25188;51.958;5.842;2022-11-20T00:36:13;-0.50;77.30
39021;DHT22;25188;51.958;5.842;2022-11-20T00:38:39;-0.50;77.40
39021;DHT22;25188;51.958;5.842;2022-11-20T00:41:08;-0.60;77.30
39021;DHT22;25188;51.958;5.842;2022-11-20T00:43:34;-0.60;77.40
39021;DHT22;25188;51.958;5.842;2022-11-20T00:46:01;-0.60;77.50
39021;DHT22;25188;51.958;5.842;2022-11-20T00:48:27;-0.60;77.70
39021;DHT22;25188;51.958;5.842;2022-11-20T00:50:53;-0.60;77.80
39021;DHT22;25188;51.958;5.842;2022-11-20T00:53:19;-0.60;78.00
39021;DHT22;25188;51.958;5.842;2022-11-20T00:55:58;-0.60;78.10
39021;DHT22;25188;51.958;5.842;2022-11-20T00:58:25;-0.70;78.00
39021;DHT22;25188;51.958;5.842;2022-11-20T01:00:53;-0.70;78.10
39021;DHT22;25188;51.958;5.842;2022-11-20T01:03:24;-0.70;78.20
39021;DHT22;25188;51.958;5.842;2022-11-20T01:05:50;-0.80;78.20
39021;DHT22;25188;51.958;5.842;2022-11-20T01:08:16;-0.80;78.40
39021;DHT22;25188;51.958;5.842;2022-11-20T01:10:42;-0.90;78.50
39021;DHT22;25188;51.958;5.842;2022-11-20T01:13:08;-0.70;78.70
39021;DHT22;25188;51.958;5.842;2022-11-20T01:15:52;-0.80;78.80
39021;DHT22;25188;51.958;5.842;2022-11-20T01:18:17;-0.90;78.80
39021;DHT22;25188;51.958;5.842;2022-11-20T01:20:43;-0.90;78.90
39021;DHT22;25188;51.958;5.842;2022-11-20T01:23:09;-0.80;79.10
39021;DHT22;25188;51.958;5.842;2022-11-20T01:25:34;-0.90;79.20
39021;DHT22;25188;51.958;5.842;2022-11-20T01:28:00;-0.90;79.20
39021;DHT22;25188;51.958;5.842;2022-11-20T01:30:26;-0.90;79.20
39021;DHT22;25188;51.958;5.842;2022-11-20T01:32:51;-0.90;79.20
39021;DHT22;25188;51.958;5.842;2022-11-20T01:35:17;-0.90;79.40
39021;DHT22;25188;51.958;5.842;2022-11-20T01:37:43;-0.90;79.40
39021;DHT22;25188;51.958;5.842;2022-11-20T01:40:09;-0.90;79.40
39021;DHT22;25188;51.958;5.842;2022-11-20T01:42:35;-0.90;79.40
39021;DHT22;25188;51.958;5.842;2022-11-20T01:45:58;-0.90;79.40
39021;DHT22;25188;51.958;5.842;2022-11-20T01:48:31;-1.00;79.50
39021;DHT22;25188;51.958;5.842;2022-11-20T01:50:58;-1.00;80.30
39021;DHT22;25188;51.958;5.842;2022-11-20T01:53:26;-0.90;79.80
39021;DHT22;25188;51.958;5.842;2022-11-20T01:55:55;-1.00;79.80
39021;DHT22;25188;51.958;5.842;2022-11-20T01:58:28;-1.00;80.00
39021;DHT22;25188;51.958;5.842;2022-11-20T02:00:55;-1.00;80.10
39021;DHT22;25188;51.958;5.842;2022-11-20T02:03:21;-0.90;80.30
39021;DHT22;25188;51.958;5.842;2022-11-20T02:06:02;-1.00;80.30
39021;DHT22;25188;51.958;5.842;2022-11-20T02:08:32;-1.00;80.50
39021;DHT22;25188;51.958;5.842;2022-11-20T02:10:58;-1.00;80.60
39021;DHT22;25188;51.958;5.842;2022-11-20T02:13:24;-1.00;80.70
39021;DHT22;25188;51.958;5.842;2022-11-20T02:16:12;-1.00;80.80
39021;DHT22;25188;51.958;5.842;2022-11-20T02:18:39;-1.00;80.90
39021;DHT22;25188;51.958;5.842;2022-11-20T02:24:14;-1.00;81.10
39021;DHT22;25188;51.958;5.842;2022-11-20T02:29:39;-1.10;81.10
39021;DHT22;25188;51.958;5.842;2022-11-20T02:32:06;-1.10;81.10
39021;DHT22;25188;51.958;5.842;2022-11-20T02:34:32;-1.10;81.20
39021;DHT22;25188;51.958;5.842;2022-11-20T02:36:59;-1.10;81.20
39021;DHT22;25188;51.958;5.842;2022-11-20T02:39:27;-1.10;81.30
39021;DHT22;25188;51.958;5.842;2022-11-20T02:41:54;-1.20;81.30
39021;DHT22;25188;51.958;5.842;2022-11-20T02:44:21;-1.20;81.30
39021;DHT22;25188;51.958;5.842;2022-11-20T02:46:47;-1.20;81.50
39021;DHT22;25188;51.958;5.842;2022-11-20T02:49:13;-1.20;81.50
39021;DHT22;25188;51.958;5.842;2022-11-20T02:51:39;-1.30;81.60
39021;DHT22;25188;51.958;5.842;2022-11-20T02:54:04;-1.30;81.70
39021;DHT22;25188;51.958;5.842;2022-11-20T02:56:30;-1.30;81.80
39021;DHT22;25188;51.958;5.842;2022-11-20T02:58:56;-1.30;81.90
39021;DHT22;25188;51.958;5.842;2022-11-20T03:01:22;-1.30;81.90
39021;DHT22;25188;51.958;5.842;2022-11-20T03:03:47;-1.30;82.00
39021;DHT22;25188;51.958;5.842;2022-11-20T03:06:17;-1.40;82.00
39021;DHT22;25188;51.958;5.842;2022-11-20T03:08:43;-1.30;82.10
39021;DHT22;25188;51.958;5.842;2022-11-20T03:11:09;-1.40;82.10
39021;DHT22;25188;51.958;5.842;2022-11-20T03:13:35;-1.40;82.10
39021;DHT22;25188;51.958;5.842;2022-11-20T03:16:12;-1.40;82.20
39021;DHT22;25188;51.958;5.842;2022-11-20T03:18:40;-1.40;82.20
39021;DHT22;25188;51.958;5.842;2022-11-20T03:21:06;-1.40;82.30
39021;DHT22;25188;51.958;5.842;2022-11-20T03:23:33;-1.50;82.30
39021;DHT22;25188;51.958;5.842;2022-11-20T03:28:45;-1.40;82.50
39021;DHT22;25188;51.958;5.842;2022-11-20T03:31:13;-1.50;82.50
39021;DHT22;25188;51.958;5.842;2022-11-20T03:33:41;-1.50;82.50
39021;DHT22;25188;51.958;5.842;2022-11-20T03:36:10;-1.50;82.60
39021;DHT22;25188;51.958;5.842;2022-11-20T03:38:36;-1.50;82.70
39021;DHT22;25188;51.958;5.842;2022-11-20T03:41:25;-1.50;82.80
39021;DHT22;25188;51.958;5.842;2022-11-20T03:43:54;-1.50;83.00
39021;DHT22;25188;51.958;5.842;2022-11-20T03:46:21;-1.60;83.10
39021;DHT22;25188;51.958;5.842;2022-11-20T03:48:47;-1.60;83.10
39021;DHT22;25188;51.958;5.842;2022-11-20T03:51:14;-1.60;83.30
39021;DHT22;25188;51.958;5.842;2022-11-20T03:53:41;-1.60;83.30
39021;DHT22;25188;51.958;5.842;2022-11-20T03:56:08;-1.50;83.40
39021;DHT22;25188;51.958;5.842;2022-11-20T03:58:35;-1.50;83.40
39021;DHT22;25188;51.958;5.842;2022-11-20T04:01:15;-1.60;83.40
39021;DHT22;25188;51.958;5.842;2022-11-20T04:03:43;-1.60;83.40
39021;DHT22;25188;51.958;5.842;2022-11-20T04:06:14;-1.60;83.50
39021;DHT22;25188;51.958;5.842;2022-11-20T04:08:40;-1.60;83.50
39021;DHT22;25188;51.958;5.842;2022-11-20T04:11:18;-1.70;83.50
39021;DHT22;25188;51.958;5.842;2022-11-20T04:13:49;-1.70;83.60
39021;DHT22;25188;51.958;5.842;2022-11-20T04:16:16;-1.80;83.70
39021;DHT22;25188;51.958;5.842;2022-11-20T04:18:41;-1.80;83.80
39021;DHT22;25188;51.958;5.842;2022-11-20T04:21:07;-1.80;83.90
39021;DHT22;25188;51.958;5.842;2022-11-20T04:23:33;-1.80;83.90
39021;DHT22;25188;51.958;5.842;2022-11-20T04:26:09;-1.70;84.00
39021;DHT22;25188;51.958;5.842;2022-11-20T04:28:36;-1.80;84.10
39021;DHT22;25188;51.958;5.842;2022-11-20T04:31:10;-1.90;84.10
39021;DHT22;25188;51.958;5.842;2022-11-20T04:33:37;-1.90;84.20
39021;DHT22;25188;51.958;5.842;2022-11-20T04:36:05;-1.90;84.30
39021;DHT22;25188;51.958;5.842;2022-11-20T04:38:32;-1.90;84.30
39021;DHT22;25188;51.958;5.842;2022-11-20T04:41:02;-1.90;84.40
39021;DHT22;25188;51.958;5.842;2022-11-20T04:43:28;-1.90;84.40
39021;DHT22;25188;51.958;5.842;2022-11-20T04:45:55;-2.00;84.40
39021;DHT22;25188;51.958;5.842;2022-11-20T04:48:21;-2.00;84.40
39021;DHT22;25188;51.958;5.842;2022-11-20T04:50:46;-2.00;84.50
39021;DHT22;25188;51.958;5.842;2022-11-20T04:53:12;-2.00;84.50
39021;DHT22;25188;51.958;5.842;2022-11-20T04:55:38;-2.10;84.40
39021;DHT22;25188;51.958;5.842;2022-11-20T04:58:03;-2.10;84.50
39021;DHT22;25188;51.958;5.842;2022-11-20T05:00:29;-2.00;84.60
39021;DHT22;25188;51.958;5.842;2022-11-20T05:02:54;-2.10;84.60
39021;DHT22;25188;51.958;5.842;2022-11-20T05:05:20;-2.20;84.60
39021;DHT22;25188;51.958;5.842;2022-11-20T05:07:46;-2.10;84.70
39021;DHT22;25188;51.958;5.842;2022-11-20T05:10:12;-2.20;84.70
39021;DHT22;25188;51.958;5.842;2022-11-20T05:12:37;-2.10;84.80
39021;DHT22;25188;51.958;5.842;2022-11-20T05:15:03;-2.20;84.80
39021;DHT22;25188;51.958;5.842;2022-11-20T05:17:29;-2.20;84.80
39021;DHT22;25188;51.958;5.842;2022-11-20T05:19:54;-2.20;84.90
39021;DHT22;25188;51.958;5.842;2022-11-20T05:22:20;-2.20;84.90
39021;DHT22;25188;51.958;5.842;2022-11-20T05:24:46;-2.20;85.00
39021;DHT22;25188;51.958;5.842;2022-11-20T05:27:11;-2.20;85.00
39021;DHT22;25188;51.958;5.842;2022-11-20T05:29:37;-2.20;85.20
39021;DHT22;25188;51.958;5.842;2022-11-20T05:32:03;-2.20;85.20
39021;DHT22;25188;51.958;5.842;2022-11-20T05:34:31;-2.30;85.20
39021;DHT22;25188;51.958;5.842;2022-11-20T05:36:56;-2.30;85.20
39021;DHT22;25188;51.958;5.842;2022-11-20T05:39:22;-2.30;85.60
39021;DHT22;25188;51.958;5.842;2022-11-20T05:41:48;-2.30;85.40
39021;DHT22;25188;51.958;5.842;2022-11-20T05:44:33;-2.30;85.50
39021;DHT22;25188;51.958;5.842;2022-11-20T05:46:59;-2.30;85.60
39021;DHT22;25188;51.958;5.842;2022-11-20T05:49:24;-2.30;85.60
39021;DHT22;25188;51.958;5.842;2022-11-20T05:51:50;-2.30;85.60
39021;DHT22;25188;51.958;5.842;2022-11-20T05:54:16;-2.30;85.60
39021;DHT22;25188;51.958;5.842;2022-11-20T05:56:41;-2.30;85.70
39021;DHT22;25188;51.958;5.842;2022-11-20T05:59:07;-2.20;86.00
39021;DHT22;25188;51.958;5.842;2022-11-20T06:01:33;-2.30;86.00
39021;DHT22;25188;51.958;5.842;2022-11-20T06:03:59;-2.30;86.00
39021;DHT22;25188;51.958;5.842;2022-11-20T06:06:24;-2.30;86.00
39021;DHT22;25188;51.958;5.842;2022-11-20T06:08:51;-2.30;86.00
39021;DHT22;25188;51.958;5.842;2022-11-20T06:11:17;-2.30;86.00
39021;DHT22;25188;51.958;5.842;2022-11-20T06:13:44;-2.30;86.10
39021;DHT22;25188;51.958;5.842;2022-11-20T06:16:11;-2.30;86.20
39021;DHT22;25188;51.958;5.842;2022-11-20T06:18:38;-2.30;86.30
39021;DHT22;25188;51.958;5.842;2022-11-20T06:21:10;-2.40;86.40
39021;DHT22;25188;51.958;5.842;2022-11-20T06:23:37;-2.40;86.50
39021;DHT22;25188;51.958;5.842;2022-11-20T06:26:08;-2.40;86.60
39021;DHT22;25188;51.958;5.842;2022-11-20T06:28:35;-2.40;86.70
39021;DHT22;25188;51.958;5.842;2022-11-20T06:31:01;-2.40;86.70
39021;DHT22;25188;51.958;5.842;2022-11-20T06:33:27;-2.30;86.90
39021;DHT22;25188;51.958;5.842;2022-11-20T06:35:59;-2.40;87.00
39021;DHT22;25188;51.958;5.842;2022-11-20T06:38:26;-2.40;87.10
39021;DHT22;25188;51.958;5.842;2022-11-20T06:40:52;-2.40;87.20
39021;DHT22;25188;51.958;5.842;2022-11-20T06:43:17;-2.40;87.20
39021;DHT22;25188;51.958;5.842;2022-11-20T06:45:43;-2.30;87.40
39021;DHT22;25188;51.958;5.842;2022-11-20T06:48:09;-2.30;87.50
39021;DHT22;25188;51.958;5.842;2022-11-20T06:50:36;-2.30;87.50
39021;DHT22;25188;51.958;5.842;2022-11-20T06:53:03;-2.40;87.60
39021;DHT22;25188;51.958;5.842;2022-11-20T06:55:30;-2.40;87.70
39021;DHT22;25188;51.958;5.842;2022-11-20T06:57:56;-2.30;87.70
39021;DHT22;25188;51.958;5.842;2022-11-20T07:00:21;-2.30;87.80
39021;DHT22;25188;51.958;5.842;2022-11-20T07:02:47;-2.30;88.40
39021;DHT22;25188;51.958;5.842;2022-11-20T07:05:13;-2.30;87.90
39021;DHT22;25188;51.958;5.842;2022-11-20T07:07:38;-2.30;88.00
39021;DHT22;25188;51.958;5.842;2022-11-20T07:10:04;-2.30;88.00
39021;DHT22;25188;51.958;5.842;2022-11-20T07:12:30;-2.30;88.10
39021;DHT22;25188;51.958;5.842;2022-11-20T07:14:56;-2.20;88.20
39021;DHT22;25188;51.958;5.842;2022-11-20T07:17:22;-2.20;88.20
39021;DHT22;25188;51.958;5.842;2022-11-20T07:19:47;-2.20;88.20
39021;DHT22;25188;51.958;5.842;2022-11-20T07:22:13;-2.20;88.30
39021;DHT22;25188;51.958;5.842;2022-11-20T07:24:39;-2.20;88.30
39021;DHT22;25188;51.958;5.842;2022-11-20T07:27:04;-2.20;88.40
39021;DHT22;25188;51.958;5.842;2022-11-20T07:29:30;-2.10;88.50
39021;DHT22;25188;51.958;5.842;2022-11-20T07:31:56;-2.10;88.60
39021;DHT22;25188;51.958;5.842;2022-11-20T07:34:22;-2.10;88.60
39021;DHT22;25188;51.958;5.842;2022-11-20T07:36:48;-2.00;88.70
39021;DHT22;25188;51.958;5.842;2022-11-20T07:39:14;-2.00;88.70
39021;DHT22;25188;51.958;5.842;2022-11-20T07:41:39;-2.00;88.80
39021;DHT22;25188;51.958;5.842;2022-11-20T07:44:05;-2.00;88.80
39021;DHT22;25188;51.958;5.842;2022-11-20T07:46:31;-1.90;88.90
39021;DHT22;25188;51.958;5.842;2022-11-20T07:48:57;-1.90;89.00
39021;DHT22;25188;51.958;5.842;2022-11-20T07:51:22;-1.90;89.10
39021;DHT22;25188;51.958;5.842;2022-11-20T07:53:51;-1.80;89.30
39021;DHT22;25188;51.958;5.842;2022-11-20T07:56:17;-1.70;89.40
39021;DHT22;25188;51.958;5.842;2022-11-20T07:58:42;-1.70;90.00
39021;DHT22;25188;51.958;5.842;2022-11-20T08:01:08;-1.60;89.60
39021;DHT22;25188;51.958;5.842;2022-11-20T08:03:34;-1.50;89.70
39021;DHT22;25188;51.958;5.842;2022-11-20T08:06:02;-1.40;89.90
39021;DHT22;25188;51.958;5.842;2022-11-20T08:08:29;-1.30;90.00
39021;DHT22;25188;51.958;5.842;2022-11-20T08:10:57;-1.30;90.00
39021;DHT22;25188;51.958;5.842;2022-11-20T08:13:43;-1.20;90.00
39021;DHT22;25188;51.958;5.842;2022-11-20T08:16:27;-1.10;90.00
39021;DHT22;25188;51.958;5.842;2022-11-20T08:18:53;-1.00;90.10
39021;DHT22;25188;51.958;5.842;2022-11-20T08:21:19;-0.90;90.10
39021;DHT22;25188;51.958;5.842;2022-11-20T08:23:45;-0.90;90.10
39021;DHT22;25188;51.958;5.842;2022-11-20T08:26:10;-0.80;90.10
39021;DHT22;25188;51.958;5.842;2022-11-20T08:28:36;-0.70;90.10
39021;DHT22;25188;51.958;5.842;2022-11-20T08:31:02;-0.70;90.10
39021;DHT22;25188;51.958;5.842;2022-11-20T08:33:29;-0.60;90.20
39021;DHT22;25188;51.958;5.842;2022-11-20T08:36:02;-0.50;90.20
39021;DHT22;25188;51.958;5.842;2022-11-20T08:38:29;-0.40;90.20
39021;DHT22;25188;51.958;5.842;2022-11-20T08:41:00;-0.30;90.30
39021;DHT22;25188;51.958;5.842;2022-11-20T08:43:44;-0.30;90.30
39021;DHT22;25188;51.958;5.842;2022-11-20T08:46:10;-0.10;90.30
39021;DHT22;25188;51.958;5.842;2022-11-20T08:48:36;0.00;90.30
39021;DHT22;25188;51.958;5.842;2022-11-20T08:51:01;0.10;90.30
39021;DHT22;25188;51.958;5.842;2022-11-20T08:53:27;0.20;90.40
39021;DHT22;25188;51.958;5.842;2022-11-20T08:55:53;0.30;90.30
39021;DHT22;25188;51.958;5.842;2022-11-20T08:58:19;0.40;90.30
39021;DHT22;25188;51.958;5.842;2022-11-20T09:00:44;0.50;90.30
39021;DHT22;25188;51.958;5.842;2022-11-20T09:03:10;0.60;90.30
39021;DHT22;25188;51.958;5.842;2022-11-20T09:05:35;0.70;90.30
39021;DHT22;25188;51.958;5.842;2022-11-20T09:08:01;0.70;90.20
39021;DHT22;25188;51.958;5.842;2022-11-20T09:10:27;0.90;90.20
39021;DHT22;25188;51.958;5.842;2022-11-20T09:12:53;0.80;90.20
39021;DHT22;25188;51.958;5.842;2022-11-20T09:15:20;0.90;90.10
39021;DHT22;25188;51.958;5.842;2022-11-20T09:17:58;0.90;90.10
39021;DHT22;25188;51.958;5.842;2022-11-20T09:20:25;1.00;90.10
39021;DHT22;25188;51.958;5.842;2022-11-20T09:22:50;1.20;90.10
39021;DHT22;25188;51.958;5.842;2022-11-20T09:25:17;1.10;90.10
39021;DHT22;25188;51.958;5.842;2022-11-20T09:27:42;1.10;90.10
39021;DHT22;25188;51.958;5.842;2022-11-20T09:30:09;1.20;90.10
39021;DHT22;25188;51.958;5.842;2022-11-20T09:32:35;1.20;90.10
39021;DHT22;25188;51.958;5.842;2022-11-20T09:35:01;1.30;90.10
39021;DHT22;25188;51.958;5.842;2022-11-20T09:37:27;1.30;90.10
39021;DHT22;25188;51.958;5.842;2022-11-20T09:39:53;1.40;90.10
39021;DHT22;25188;51.958;5.842;2022-11-20T09:55:16;1.70;90.10
39021;DHT22;25188;51.958;5.842;2022-11-20T09:57:47;1.70;90.00
39021;DHT22;25188;51.958;5.842;2022-11-20T10:00:15;1.80;90.10
39021;DHT22;25188;51.958;5.842;2022-11-20T10:02:58;1.90;90.10
39021;DHT22;25188;51.958;5.842;2022-11-20T10:05:31;1.90;90.10
39021;DHT22;25188;51.958;5.842;2022-11-20T10:10:34;2.10;90.10
39021;DHT22;25188;51.958;5.842;2022-11-20T10:19:16;2.40;89.80
39021;DHT22;25188;51.958;5.842;2022-11-20T10:24:55;2.50;89.50
39021;DHT22;25188;51.958;5.842;2022-11-20T10:32:38;2.80;89.40
39021;DHT22;25188;51.958;5.842;2022-11-20T10:35:41;2.90;89.40
39021;DHT22;25188;51.958;5.842;2022-11-20T10:38:25;3.00;89.40
39021;DHT22;25188;51.958;5.842;2022-11-20T10:40:59;3.10;89.30
39021;DHT22;25188;51.958;5.842;2022-11-20T10:43:46;3.20;89.40
39021;DHT22;25188;51.958;5.842;2022-11-20T10:46:20;3.40;89.80
39021;DHT22;25188;51.958;5.842;2022-11-20T10:48:47;3.60;90.00
39021;DHT22;25188;51.958;5.842;2022-11-20T11:00:00;4.00;89.10
39021;DHT22;25188;51.958;5.842;2022-11-20T11:01:59;4.00;88.90
39021;DHT22;25188;51.958;5.842;2022-11-20T11:07:09;4.10;88.50
39021;DHT22;25188;51.958;5.842;2022-11-20T11:09:41;4.10;88.30
39021;DHT22;25188;51.958;5.842;2022-11-20T11:12:09;4.10;88.20
39021;DHT22;25188;51.958;5.842;2022-11-20T11:14:46;4.20;88.20
39021;DHT22;25188;51.958;5.842;2022-11-20T11:20:15;4.30;87.90
39021;DHT22;25188;51.958;5.842;2022-11-20T11:22:57;4.30;87.90
39021;DHT22;25188;51.958;5.842;2022-11-20T11:25:35;4.40;87.80
39021;DHT22;25188;51.958;5.842;2022-11-20T11:28:03;4.50;87.70
39021;DHT22;25188;51.958;5.842;2022-11-20T11:30:40;4.50;87.60
39021;DHT22;25188;51.958;5.842;2022-11-20T11:33:10;4.70;87.60
39021;DHT22;25188;51.958;5.842;2022-11-20T11:35:44;4.70;87.30
39021;DHT22;25188;51.958;5.842;2022-11-20T11:38:18;4.80;87.20
39021;DHT22;25188;51.958;5.842;2022-11-20T11:40:47;4.70;86.90
39021;DHT22;25188;51.958;5.842;2022-11-20T11:43:24;4.80;86.70
39021;DHT22;25188;51.958;5.842;2022-11-20T11:46:31;4.80;86.50
39021;DHT22;25188;51.958;5.842;2022-11-20T11:51:46;4.70;86.00
39021;DHT22;25188;51.958;5.842;2022-11-20T11:54:30;4.60;85.90
39021;DHT22;25188;51.958;5.842;2022-11-20T11:56:58;4.60;85.80
39021;DHT22;25188;51.958;5.842;2022-11-20T12:02:04;4.60;85.90
39021;DHT22;25188;51.958;5.842;2022-11-20T12:04:44;4.50;85.90
39021;DHT22;25188;51.958;5.842;2022-11-20T12:07:20;4.50;85.80
39021;DHT22;25188;51.958;5.842;2022-11-20T12:09:49;4.50;85.90
39021;DHT22;25188;51.958;5.842;2022-11-20T12:12:20;4.50;86.00
39021;DHT22;25188;51.958;5.842;2022-11-20T12:14:48;4.50;86.20
39021;DHT22;25188;51.958;5.842;2022-11-20T12:17:16;4.50;86.30
39021;DHT22;25188;51.958;5.842;2022-11-20T12:19:43;4.50;86.30
39021;DHT22;25188;51.958;5.842;2022-11-20T12:25:12;4.50;86.70
39021;DHT22;25188;51.958;5.842;2022-11-20T12:30:32;4.50;86.60
39021;DHT22;25188;51.958;5.842;2022-11-20T12:42:13;4.60;86.80
39021;DHT22;25188;51.958;5.842;2022-11-20T12:50:38;4.60;87.30
39021;DHT22;25188;51.958;5.842;2022-11-20T12:53:16;4.60;87.60
39021;DHT22;25188;51.958;5.842;2022-11-20T12:55:54;4.60;87.80
39021;DHT22;25188;51.958;5.842;2022-11-20T12:58:31;4.60;87.60
39021;DHT22;25188;51.958;5.842;2022-11-20T13:06:49;4.50;88.40
39021;DHT22;25188;51.958;5.842;2022-11-20T13:09:18;4.50;88.50
39021;DHT22;25188;51.958;5.842;2022-11-20T13:14:46;4.50;88.10
39021;DHT22;25188;51.958;5.842;2022-11-20T13:19:53;4.50;88.60
39021;DHT22;25188;51.958;5.842;2022-11-20T13:22:27;4.50;88.30
39021;DHT22;25188;51.958;5.842;2022-11-20T13:24:54;4.50;88.60
39021;DHT22;25188;51.958;5.842;2022-11-20T13:27:21;4.50;88.60
39021;DHT22;25188;51.958;5.842;2022-11-20T13:30:12;4.50;88.70
39021;DHT22;25188;51.958;5.842;2022-11-20T13:32:51;4.50;88.80
39021;DHT22;25188;51.958;5.842;2022-11-20T13:40:37;4.60;89.70
39021;DHT22;25188;51.958;5.842;2022-11-20T13:43:34;4.60;90.00
39021;DHT22;25188;51.958;5.842;2022-11-20T13:46:08;4.60;89.90
39021;DHT22;25188;51.958;5.842;2022-11-20T13:48:45;4.60;90.10
39021;DHT22;25188;51.958;5.842;2022-11-20T14:02:01;4.70;90.20
39021;DHT22;25188;51.958;5.842;2022-11-20T14:04:33;4.70;90.20
39021;DHT22;25188;51.958;5.842;2022-11-20T14:07:01;4.70;90.20
39021;DHT22;25188;51.958;5.842;2022-11-20T14:09:34;4.70;90.30
39021;DHT22;25188;51.958;5.842;2022-11-20T14:12:01;4.70;90.30
39021;DHT22;25188;51.958;5.842;2022-11-20T14:14:29;4.70;90.40
39021;DHT22;25188;51.958;5.842;2022-11-20T14:17:17;4.70;90.80
39021;DHT22;25188;51.958;5.842;2022-11-20T14:19:43;4.60;90.70
39021;DHT22;25188;51.958;5.842;2022-11-20T14:22:21;4.60;90.60
39021;DHT22;25188;51.958;5.842;2022-11-20T14:24:48;4.60;90.70
39021;DHT22;25188;51.958;5.842;2022-11-20T14:27:17;4.60;90.70
39021;DHT22;25188;51.958;5.842;2022-11-20T14:29:45;4.60;90.70
39021;DHT22;25188;51.958;5.842;2022-11-20T14:32:15;4.60;90.80
39021;DHT22;25188;51.958;5.842;2022-11-20T14:34:44;4.60;90.80
39021;DHT22;25188;51.958;5.842;2022-11-20T14:37:12;4.60;91.00
39021;DHT22;25188;51.958;5.842;2022-11-20T14:39:48;4.60;90.90
39021;DHT22;25188;51.958;5.842;2022-11-20T14:42:20;4.60;90.90
39021;DHT22;25188;51.958;5.842;2022-11-20T14:44:49;4.60;90.90
39021;DHT22;25188;51.958;5.842;2022-11-20T14:47:21;4.60;90.90
39021;DHT22;25188;51.958;5.842;2022-11-20T14:49:48;4.60;91.00
39021;DHT22;25188;51.958;5.842;2022-11-20T14:52:20;4.60;91.10
39021;DHT22;25188;51.958;5.842;2022-11-20T14:54:46;4.50;91.10
39021;DHT22;25188;51.958;5.842;2022-11-20T14:57:39;4.60;91.20
39021;DHT22;25188;51.958;5.842;2022-11-20T15:02:48;4.60;91.30
39021;DHT22;25188;51.958;5.842;2022-11-20T15:05:15;4.70;91.30
39021;DHT22;25188;51.958;5.842;2022-11-20T15:07:43;4.60;91.40
39021;DHT22;25188;51.958;5.842;2022-11-20T15:12:55;4.60;91.50
39021;DHT22;25188;51.958;5.842;2022-11-20T15:15:45;4.60;91.60
39021;DHT22;25188;51.958;5.842;2022-11-20T15:18:58;4.60;91.60
39021;DHT22;25188;51.958;5.842;2022-11-20T15:21:10;4.60;91.80
39021;DHT22;25188;51.958;5.842;2022-11-20T15:23:37;4.60;91.60
39021;DHT22;25188;51.958;5.842;2022-11-20T15:26:05;4.60;91.60
39021;DHT22;25188;51.958;5.842;2022-11-20T15:28:36;4.60;91.70
39021;DHT22;25188;51.958;5.842;2022-11-20T15:31:03;4.60;91.70
39021;DHT22;25188;51.958;5.842;2022-11-20T15:33:30;4.60;91.70
39021;DHT22;25188;51.958;5.842;2022-11-20T15:35:56;4.60;91.80
39021;DHT22;25188;51.958;5.842;2022-11-20T15:38:22;4.60;91.80
39021;DHT22;25188;51.958;5.842;2022-11-20T15:40:48;4.70;92.00
39021;DHT22;25188;51.958;5.842;2022-11-20T15:43:14;4.70;92.10
39021;DHT22;25188;51.958;5.842;2022-11-20T15:45:45;4.70;92.10
39021;DHT22;25188;51.958;5.842;2022-11-20T15:48:15;4.70;92.10
39021;DHT22;25188;51.958;5.842;2022-11-20T15:53:27;4.70;92.30
39021;DHT22;25188;51.958;5.842;2022-11-20T15:55:53;4.60;92.20
39021;DHT22;25188;51.958;5.842;2022-11-20T15:58:18;4.60;92.30
39021;DHT22;25188;51.958;5.842;2022-11-20T16:00:45;4.70;92.50
39021;DHT22;25188;51.958;5.842;2022-11-20T16:03:12;4.70;92.60
39021;DHT22;25188;51.958;5.842;2022-11-20T16:05:38;4.70;92.50
39021;DHT22;25188;51.958;5.842;2022-11-20T16:08:04;4.70;92.50
39021;DHT22;25188;51.958;5.842;2022-11-20T16:10:29;4.70;92.60
39021;DHT22;25188;51.958;5.842;2022-11-20T16:12:55;4.70;92.60
39021;DHT22;25188;51.958;5.842;2022-11-20T16:15:39;4.60;92.70
39021;DHT22;25188;51.958;5.842;2022-11-20T16:18:14;4.60;92.70
39021;DHT22;25188;51.958;5.842;2022-11-20T16:20:40;4.60;92.60
39021;DHT22;25188;51.958;5.842;2022-11-20T16:23:06;4.70;92.70
39021;DHT22;25188;51.958;5.842;2022-11-20T16:25:32;4.60;92.70
39021;DHT22;25188;51.958;5.842;2022-11-20T16:27:58;4.70;92.80
39021;DHT22;25188;51.958;5.842;2022-11-20T16:30:23;4.70;93.00
39021;DHT22;25188;51.958;5.842;2022-11-20T16:32:49;4.70;93.00
39021;DHT22;25188;51.958;5.842;2022-11-20T16:35:15;4.70;93.00
39021;DHT22;25188;51.958;5.842;2022-11-20T16:37:41;4.70;93.10
39021;DHT22;25188;51.958;5.842;2022-11-20T16:40:09;4.70;93.20
39021;DHT22;25188;51.958;5.842;2022-11-20T16:42:36;4.70;93.50
39021;DHT22;25188;51.958;5.842;2022-11-20T16:45:03;4.70;93.30
39021;DHT22;25188;51.958;5.842;2022-11-20T16:47:33;4.70;93.40
39021;DHT22;25188;51.958;5.842;2022-11-20T16:49:59;4.70;93.40
39021;DHT22;25188;51.958;5.842;2022-11-20T16:52:24;4.80;93.50
39021;DHT22;25188;51.958;5.842;2022-11-20T16:54:50;4.80;93.50
39021;DHT22;25188;51.958;5.842;2022-11-20T16:57:16;4.80;93.60
39021;DHT22;25188;51.958;5.842;2022-11-20T16:59:41;4.80;93.60
39021;DHT22;25188;51.958;5.842;2022-11-20T17:02:08;4.80;93.60
39021;DHT22;25188;51.958;5.842;2022-11-20T17:04:35;4.80;93.60
39021;DHT22;25188;51.958;5.842;2022-11-20T17:07:00;4.80;93.70
39021;DHT22;25188;51.958;5.842;2022-11-20T17:09:27;4.80;93.70
39021;DHT22;25188;51.958;5.842;2022-11-20T17:11:53;4.70;93.70
39021;DHT22;25188;51.958;5.842;2022-11-20T17:14:18;4.80;93.80
39021;DHT22;25188;51.958;5.842;2022-11-20T17:16:44;4.70;93.80
39021;DHT22;25188;51.958;5.842;2022-11-20T17:19:10;4.70;93.90
39021;DHT22;25188;51.958;5.842;2022-11-20T17:21:36;4.80;94.00
39021;DHT22;25188;51.958;5.842;2022-11-20T17:24:08;4.80;94.10
39021;DHT22;25188;51.958;5.842;2022-11-20T17:26:36;4.70;94.10
39021;DHT22;25188;51.958;5.842;2022-11-20T17:29:04;4.80;94.20
39021;DHT22;25188;51.958;5.842;2022-11-20T17:31:32;4.70;94.10
39021;DHT22;25188;51.958;5.842;2022-11-20T17:33:58;4.70;94.10
39021;DHT22;25188;51.958;5.842;2022-11-20T17:36:25;4.80;94.30
39021;DHT22;25188;51.958;5.842;2022-11-20T17:38:51;4.80;94.30
39021;DHT22;25188;51.958;5.842;2022-11-20T17:41:19;4.80;94.30
39021;DHT22;25188;51.958;5.842;2022-11-20T17:43:47;4.80;94.50